Portland, Oregon
Traffic Map
Current Weather Conditions
Portland, Oregon
Broken Clouds
Broken Clouds
48°
Feels Like: 44°
Wind Chill: 44° Ceiling: 6000
Heat Index: 48° Visibility: 10mi
Dew Point: 40° Wind: 8mph
Humidity: 74% Direction: 270° (W)
Pressure: 30.07in Gusts: 0mph
Raw Report DataKPDX 270453Z 27007KT 10SM SCT042 BKN060 09/04 A3007 RMK AO2 SLP183 T00890044
Traffic Incident Summary
Active as of:
Severity:
Category:
InformationThere was an issue retrieving the traffic information for this location. Please try a different location or try again shortly.
Advertisements
Track Severe Weather on mobile